createdAt,value
2018-01-18T00:02:23.156Z,97764.42
2018-01-18T00:04:50.613Z,97763.15
2018-01-18T00:07:18.398Z,97765.33
2018-01-18T00:09:45.852Z,97773.48
2018-01-18T00:12:13.300Z,97765.40
2018-01-18T00:14:41.089Z,97780.97
2018-01-18T00:17:08.545Z,97750.33
2018-01-18T00:19:35.999Z,97767.84
2018-01-18T00:22:03.782Z,97766.14
2018-01-18T00:24:31.236Z,97769.16
2018-01-18T00:26:58.689Z,97768.31
2018-01-18T00:29:26.764Z,97777.31
2018-01-18T00:31:54.211Z,97777.67
2018-01-18T00:34:21.657Z,97797.80
2018-01-18T00:36:49.451Z,97784.21
2018-01-18T00:39:16.890Z,97786.98
2018-01-18T00:41:44.328Z,97783.20
2018-01-18T00:44:12.157Z,97778.66
2018-01-18T00:46:39.600Z,97782.09
2018-01-18T00:49:07.042Z,97784.21
2018-01-18T00:51:36.056Z,97786.62
2018-01-18T00:54:03.505Z,97795.55
2018-01-18T00:56:30.956Z,97797.84
2018-01-18T00:58:58.742Z,97791.67
2018-01-18T01:01:26.181Z,97795.72
2018-01-18T01:03:53.629Z,97782.76
2018-01-18T01:06:21.417Z,97779.27
2018-01-18T01:08:48.857Z,97781.99
2018-01-18T01:11:16.304Z,97792.28
2018-01-18T01:13:44.117Z,97800.40
2018-01-18T01:16:11.551Z,97787.67
2018-01-18T01:18:38.986Z,97783.26
2018-01-18T01:21:06.819Z,97792.88
2018-01-18T01:23:34.273Z,97792.41
2018-01-18T01:26:01.713Z,97785.61
2018-01-18T01:28:29.436Z,97788.02
2018-01-18T01:30:56.884Z,97800.19
2018-01-18T01:33:24.325Z,97804.27
2018-01-18T01:35:52.023Z,97806.78
2018-01-18T01:38:19.459Z,97801.09
2018-01-18T01:40:46.901Z,97813.37
2018-01-18T01:43:14.857Z,97808.58
2018-01-18T01:45:42.304Z,97820.38
2018-01-18T01:48:09.757Z,97822.63
2018-01-18T01:50:38.166Z,97810.74
2018-01-18T01:53:06.018Z,97811.67
2018-01-18T01:55:33.448Z,97813.70
2018-01-18T01:58:01.148Z,97825.83
2018-01-18T02:00:28.588Z,97811.28
2018-01-18T02:02:56.029Z,97831.39
2018-01-18T02:05:23.847Z,97831.52
2018-01-18T02:07:51.296Z,97833.09
2018-01-18T02:10:18.741Z,97836.80
2018-01-18T02:12:46.518Z,97848.02
2018-01-18T02:15:13.958Z,97844.68
2018-01-18T02:17:41.402Z,97843.23
2018-01-18T02:20:09.157Z,97844.80
2018-01-18T02:22:36.598Z,97851.05
2018-01-18T02:25:04.036Z,97850.26
2018-01-18T02:27:31.919Z,97845.95
2018-01-18T02:29:59.361Z,97859.90
2018-01-18T02:32:26.804Z,97849.55
2018-01-18T02:34:54.594Z,97848.70
2018-01-18T02:37:22.036Z,97836.22
2018-01-18T02:39:49.470Z,97840.91
2018-01-18T02:42:17.289Z,97846.33
2018-01-18T02:44:44.734Z,97831.00
2018-01-18T02:47:12.178Z,97831.92
2018-01-18T02:49:39.988Z,97840.31
2018-01-18T02:52:07.436Z,97848.62
2018-01-18T02:54:36.148Z,97842.83
2018-01-18T02:57:03.779Z,97844.42
2018-01-18T02:59:31.219Z,97856.11
2018-01-18T03:01:58.659Z,97847.17
2018-01-18T03:04:26.572Z,97853.84
2018-01-18T03:06:54.017Z,97837.68
2018-01-18T03:09:21.472Z,97847.28
2018-01-18T03:11:49.267Z,97854.03
2018-01-18T03:14:16.709Z,97851.41
2018-01-18T03:16:44.152Z,97849.11
2018-01-18T03:19:11.947Z,97834.30
2018-01-18T03:21:39.389Z,97823.31
2018-01-18T03:24:06.834Z,97822.31
2018-01-18T03:26:34.632Z,97835.69
2018-01-18T03:29:02.075Z,97825.32
2018-01-18T03:31:29.517Z,97817.34
2018-01-18T03:33:57.319Z,97813.50
2018-01-18T03:36:24.761Z,97815.42
2018-01-18T03:38:52.209Z,97814.23
2018-01-18T03:41:19.996Z,97818.46
2018-01-18T03:43:47.446Z,97821.71
2018-01-18T03:46:14.886Z,97822.48
2018-01-18T03:48:42.548Z,97824.48
2018-01-18T03:51:09.994Z,97825.73
2018-01-18T03:53:37.440Z,97829.78
2018-01-18T03:56:05.693Z,97829.72
2018-01-18T03:58:33.136Z,97810.62
2018-01-18T04:01:00.589Z,97821.77
2018-01-18T04:03:28.373Z,97818.32
2018-01-18T04:05:55.816Z,97822.07
2018-01-18T04:08:23.273Z,97828.55
2018-01-18T04:10:51.214Z,97825.91
2018-01-18T04:13:18.669Z,97820.65
2018-01-18T04:15:46.121Z,97819.91
2018-01-18T04:18:13.756Z,97813.41
2018-01-18T04:20:41.205Z,97824.98
2018-01-18T04:23:08.652Z,97815.63
2018-01-18T04:25:36.440Z,97804.08
2018-01-18T04:28:03.882Z,97816.19
2018-01-18T04:30:31.344Z,97809.19
2018-01-18T04:32:59.126Z,97803.73
2018-01-18T04:35:26.572Z,97802.15
2018-01-18T04:37:54.027Z,97797.76
2018-01-18T04:40:22.118Z,97792.89
2018-01-18T04:42:49.569Z,97798.50
2018-01-18T04:45:17.013Z,97789.27
2018-01-18T04:47:44.804Z,97779.72
2018-01-18T04:50:12.238Z,97777.73
2018-01-18T04:52:39.699Z,97775.56
2018-01-18T04:55:07.496Z,97774.40
2018-01-18T04:57:35.637Z,97769.86
2018-01-18T05:00:03.095Z,97763.57
2018-01-18T05:02:30.811Z,97755.39
2018-01-18T05:04:58.262Z,97750.45
2018-01-18T05:07:25.713Z,97749.52
2018-01-18T05:09:53.493Z,97748.62
2018-01-18T05:12:20.937Z,97750.28
2018-01-18T05:14:48.378Z,97755.02
2018-01-18T05:17:16.000Z,97754.95
2018-01-18T05:19:43.448Z,97754.00
2018-01-18T05:22:10.896Z,97753.23
2018-01-18T05:24:38.524Z,97756.27
2018-01-18T05:27:05.976Z,97758.61
2018-01-18T05:29:33.420Z,97751.22
2018-01-18T05:32:01.179Z,97759.26
2018-01-18T05:34:28.641Z,97753.95
2018-01-18T05:36:57.024Z,97749.98
2018-01-18T05:39:24.858Z,97750.19
2018-01-18T05:41:52.309Z,97752.13
2018-01-18T05:44:19.763Z,97757.33
2018-01-18T05:46:47.529Z,97754.48
2018-01-18T05:49:14.973Z,97747.91
2018-01-18T05:51:42.416Z,97743.70
2018-01-18T05:54:10.179Z,97742.41
2018-01-18T05:56:37.662Z,97735.41
2018-01-18T05:59:05.513Z,97737.44
2018-01-18T06:01:33.504Z,97723.85
2018-01-18T06:04:00.956Z,97728.69
2018-01-18T06:06:28.395Z,97720.47
2018-01-18T06:08:56.206Z,97718.48
2018-01-18T06:11:23.649Z,97710.23
2018-01-18T06:13:51.106Z,97712.22
2018-01-18T06:16:18.736Z,97714.06
2018-01-18T06:18:46.173Z,97707.65
2018-01-18T06:21:13.626Z,97715.13
2018-01-18T06:23:41.252Z,97716.48
2018-01-18T06:26:08.704Z,97707.44
2018-01-18T06:28:36.156Z,97702.97
2018-01-18T06:31:04.315Z,97698.38
2018-01-18T06:33:31.770Z,97695.52
2018-01-18T06:35:59.211Z,97690.44
2018-01-18T06:38:26.974Z,97692.53
2018-01-18T06:40:54.417Z,97695.62
2018-01-18T06:43:21.869Z,97693.95
2018-01-18T06:45:49.636Z,97692.82
2018-01-18T06:48:17.082Z,97689.06
2018-01-18T06:50:44.521Z,97693.45
2018-01-18T06:53:12.320Z,97700.48
2018-01-18T06:55:39.773Z,97681.30
2018-01-18T06:58:07.224Z,97681.09
2018-01-18T07:00:35.469Z,97680.09
2018-01-18T07:03:02.915Z,97682.62
2018-01-18T07:05:30.361Z,97674.84
2018-01-18T07:07:58.313Z,97681.64
2018-01-18T07:10:25.753Z,97676.66
2018-01-18T07:12:53.201Z,97676.23
2018-01-18T07:15:21.308Z,97671.56
2018-01-18T07:17:48.754Z,97664.02
2018-01-18T07:20:16.299Z,97662.75
2018-01-18T07:22:44.302Z,97654.08
2018-01-18T07:25:11.756Z,97658.76
2018-01-18T07:27:39.193Z,97655.59
2018-01-18T07:30:06.996Z,97650.70
2018-01-18T07:32:34.517Z,97648.86
2018-01-18T07:35:01.960Z,97631.64
2018-01-18T07:37:29.685Z,97633.29
2018-01-18T07:39:57.140Z,97632.71
2018-01-18T07:42:24.579Z,97621.16
2018-01-18T07:44:52.377Z,97624.15
2018-01-18T07:47:19.828Z,97618.52
2018-01-18T07:49:47.287Z,97622.23
2018-01-18T07:52:15.045Z,97615.55
2018-01-18T07:54:42.494Z,97617.27
2018-01-18T07:57:15.813Z,97614.20
2018-01-18T07:59:43.276Z,97611.98
2018-01-18T08:02:11.398Z,97599.25
2018-01-18T08:04:39.244Z,97587.93
2018-01-18T08:07:06.693Z,97587.05
2018-01-18T08:09:34.144Z,97584.64
2018-01-18T08:12:02.152Z,97574.17
2018-01-18T08:14:29.596Z,97565.17
2018-01-18T08:16:57.051Z,97558.92
2018-01-18T08:19:24.785Z,97556.89
2018-01-18T08:21:52.233Z,97547.28
2018-01-18T08:24:19.677Z,97549.33
2018-01-18T08:26:47.300Z,97533.51
2018-01-18T08:29:14.757Z,97523.63
2018-01-18T08:31:42.213Z,97518.84
2018-01-18T08:34:10.089Z,97505.75
2018-01-18T08:36:37.546Z,97500.37
2018-01-18T08:39:04.997Z,97505.55
2018-01-18T08:41:32.848Z,97496.03
2018-01-18T08:44:00.295Z,97494.91
2018-01-18T08:46:27.736Z,97493.06
2018-01-18T08:48:55.548Z,97494.02
2018-01-18T08:51:23.000Z,97487.13
2018-01-18T08:53:50.450Z,97474.96
2018-01-18T08:56:18.227Z,97478.80
2018-01-18T08:58:45.681Z,97470.61
2018-01-18T09:01:13.132Z,97465.49
2018-01-18T09:03:41.585Z,97456.48
2018-01-18T09:06:09.033Z,97453.64
2018-01-18T09:08:36.489Z,97448.52
2018-01-18T09:11:04.526Z,97448.99
2018-01-18T09:13:31.977Z,97433.63
2018-01-18T09:15:59.418Z,97422.66
2018-01-18T09:18:27.207Z,97411.55
2018-01-18T09:20:54.664Z,97409.41
2018-01-18T09:23:22.117Z,97393.80
2018-01-18T09:25:49.887Z,97386.07
2018-01-18T09:28:17.333Z,97388.24
2018-01-18T09:30:44.776Z,97378.26
2018-01-18T09:33:12.585Z,97376.88
2018-01-18T09:35:40.037Z,97378.83
2018-01-18T09:38:07.484Z,97368.84
2018-01-18T09:40:35.280Z,97363.94
2018-01-18T09:43:02.725Z,97341.88
2018-01-18T09:45:30.170Z,97341.59
2018-01-18T09:47:58.105Z,97339.88
2018-01-18T09:50:25.549Z,97328.22
2018-01-18T09:52:53.034Z,97335.10
2018-01-18T09:55:20.650Z,97333.14
2018-01-18T09:57:48.108Z,97336.52
2018-01-18T10:00:15.557Z,97331.27
2018-01-18T10:02:43.324Z,97327.86
2018-01-18T10:05:11.200Z,97317.69
2018-01-18T10:07:38.652Z,97312.25
2018-01-18T10:10:07.585Z,97302.87
2018-01-18T10:12:35.033Z,97297.83
2018-01-18T10:15:02.483Z,97287.77
2018-01-18T10:17:30.245Z,97287.87
2018-01-18T10:19:57.697Z,97282.55
2018-01-18T10:22:25.148Z,97269.52
2018-01-18T10:24:52.924Z,97273.47
2018-01-18T10:27:20.380Z,97258.36
2018-01-18T10:29:47.828Z,97264.25
2018-01-18T10:32:15.617Z,97263.11
2018-01-18T10:34:43.070Z,97249.95
2018-01-18T10:37:10.535Z,97255.36
2018-01-18T10:39:38.155Z,97256.27
2018-01-18T10:42:05.611Z,97252.95
2018-01-18T10:44:33.064Z,97253.38
2018-01-18T10:47:00.996Z,97249.40
2018-01-18T10:49:28.448Z,97250.30
2018-01-18T10:51:55.893Z,97234.91
2018-01-18T10:54:23.602Z,97220.00
2018-01-18T10:56:51.049Z,97227.91
2018-01-18T10:59:18.506Z,97224.93
2018-01-18T11:01:46.641Z,97227.09
2018-01-18T11:04:14.214Z,97231.70
2018-01-18T11:06:42.104Z,97220.39
2018-01-18T11:09:09.721Z,97210.73
2018-01-18T11:11:37.176Z,97189.25
2018-01-18T11:14:04.616Z,97204.22
2018-01-18T11:16:32.344Z,97181.08
2018-01-18T11:18:59.793Z,97200.85
2018-01-18T11:21:27.245Z,97198.88
2018-01-18T11:23:55.043Z,97182.22
2018-01-18T11:26:22.505Z,97153.89
2018-01-18T11:28:49.965Z,97168.58
2018-01-18T11:31:17.724Z,97155.97
2018-01-18T11:33:45.565Z,97145.29
2018-01-18T11:36:13.009Z,97130.41
2018-01-18T11:38:40.724Z,97122.77
2018-01-18T11:41:08.173Z,97128.23
2018-01-18T11:43:35.628Z,97114.91
2018-01-18T11:46:03.402Z,97115.81
2018-01-18T11:48:30.851Z,97103.50
2018-01-18T11:50:58.298Z,97099.63
2018-01-18T11:53:26.085Z,97092.62
2018-01-18T11:55:53.538Z,97085.93
2018-01-18T11:58:20.984Z,97078.19
2018-01-18T12:00:48.770Z,97077.33
2018-01-18T12:03:16.229Z,97078.45
2018-01-18T12:05:43.686Z,97069.80
2018-01-18T12:08:13.929Z,97061.11
2018-01-18T12:10:41.380Z,97050.20
2018-01-18T12:13:08.837Z,97053.88
2018-01-18T12:15:36.610Z,97045.50
2018-01-18T12:18:04.067Z,97038.84
2018-01-18T12:20:31.551Z,97036.70
2018-01-18T12:22:59.304Z,97028.64
2018-01-18T12:25:26.761Z,97020.96
2018-01-18T12:27:54.220Z,97020.59
2018-01-18T12:30:21.974Z,97014.53
2018-01-18T12:32:49.428Z,97015.44
2018-01-18T12:35:16.882Z,97009.38
2018-01-18T12:37:44.748Z,96994.75
2018-01-18T12:40:12.192Z,96993.59
2018-01-18T12:42:39.644Z,96987.62
2018-01-18T12:45:07.657Z,96985.08
2018-01-18T12:47:35.107Z,96962.03
2018-01-18T12:50:02.600Z,96958.09
2018-01-18T12:52:30.654Z,96942.08
2018-01-18T12:54:58.127Z,96942.53
2018-01-18T12:57:25.580Z,96932.34
2018-01-18T12:59:53.340Z,96921.84
2018-01-18T13:02:20.791Z,96929.55
2018-01-18T13:04:48.268Z,96919.47
2018-01-18T13:07:16.029Z,96904.33
2018-01-18T13:09:44.182Z,96906.44
2018-01-18T13:12:11.633Z,96892.50
2018-01-18T13:14:39.414Z,96898.31
2018-01-18T13:17:06.865Z,96884.98
2018-01-18T13:19:34.322Z,96884.13
2018-01-18T13:22:02.336Z,96886.42
2018-01-18T13:24:29.793Z,96863.95
2018-01-18T13:26:57.250Z,96863.73
2018-01-18T13:29:25.332Z,96872.61
2018-01-18T13:31:52.801Z,96855.79
2018-01-18T13:34:20.989Z,96849.19
2018-01-18T13:36:48.632Z,96845.48
2018-01-18T13:39:16.092Z,96840.02
2018-01-18T13:41:43.549Z,96833.02
2018-01-18T13:44:11.312Z,96827.44
2018-01-18T13:46:38.775Z,96825.96
2018-01-18T13:49:06.228Z,96814.05
2018-01-18T13:51:33.967Z,96814.80
2018-01-18T13:54:01.430Z,96807.02
2018-01-18T13:56:28.884Z,96800.27
2018-01-18T13:58:56.681Z,96785.26
2018-01-18T14:01:24.140Z,96783.48
2018-01-18T14:03:51.593Z,96787.44
2018-01-18T14:06:20.083Z,96777.63
2018-01-18T14:08:47.534Z,96776.02
2018-01-18T14:11:15.933Z,96767.56
2018-01-18T14:13:43.743Z,96767.61
2018-01-18T14:16:11.205Z,96770.56
2018-01-18T14:18:38.668Z,96790.80
2018-01-18T14:21:06.600Z,96782.33
2018-01-18T14:23:34.058Z,96785.22
2018-01-18T14:26:01.521Z,96761.11
2018-01-18T14:28:29.269Z,96761.28
2018-01-18T14:30:56.726Z,96756.73
2018-01-18T14:33:24.193Z,96754.05
2018-01-18T14:35:51.961Z,96745.45
2018-01-18T14:38:19.777Z,96751.56
2018-01-18T14:40:47.238Z,96756.43
2018-01-18T14:43:15.281Z,96742.84
2018-01-18T14:45:42.729Z,96739.59
2018-01-18T14:48:10.201Z,96720.88
2018-01-18T14:50:37.957Z,96714.06
2018-01-18T14:53:05.401Z,96720.80
2018-01-18T14:55:32.846Z,96724.75
2018-01-18T14:58:00.641Z,96710.28
2018-01-18T15:00:28.091Z,96723.18
2018-01-18T15:02:55.536Z,96707.22
2018-01-18T15:05:23.329Z,96687.43
2018-01-18T15:07:50.779Z,96710.48
2018-01-18T15:10:18.225Z,96705.66
2018-01-18T15:12:46.020Z,96718.13
2018-01-18T15:15:13.469Z,96718.34
2018-01-18T15:17:40.912Z,96711.65
2018-01-18T15:20:08.700Z,96714.27
2018-01-18T15:22:36.145Z,96703.49
2018-01-18T15:25:03.597Z,96681.20
2018-01-18T15:27:31.379Z,96685.50
2018-01-18T15:29:58.828Z,96681.62
2018-01-18T15:32:26.272Z,96685.97
2018-01-18T15:34:54.076Z,96689.97
2018-01-18T15:37:21.517Z,96670.97
2018-01-18T15:39:48.965Z,96665.19
2018-01-18T15:42:16.752Z,96652.11
2018-01-18T15:44:44.197Z,96643.30
2018-01-18T15:47:11.701Z,96634.25
2018-01-18T15:49:39.759Z,96639.31
2018-01-18T15:52:07.204Z,96623.59
2018-01-18T15:54:34.650Z,96626.05
2018-01-18T15:57:02.397Z,96623.72
2018-01-18T15:59:29.845Z,96622.34
2018-01-18T16:01:57.293Z,96614.59
2018-01-18T16:04:25.120Z,96616.85
2018-01-18T16:06:52.661Z,96605.28
2018-01-18T16:09:20.109Z,96597.73
2018-01-18T16:11:47.940Z,96617.33
2018-01-18T16:14:16.241Z,96589.05
2018-01-18T16:16:43.689Z,96599.55
2018-01-18T16:19:11.421Z,96603.50
2018-01-18T16:21:38.881Z,96608.69
2018-01-18T16:24:06.327Z,96612.20
2018-01-18T16:26:34.122Z,96591.27
2018-01-18T16:29:01.581Z,96585.85
2018-01-18T16:31:29.025Z,96601.20
2018-01-18T16:33:56.791Z,96622.48
2018-01-18T16:36:24.246Z,96592.51
2018-01-18T16:38:51.704Z,96609.10
2018-01-18T16:41:19.490Z,96597.41
2018-01-18T16:43:46.945Z,96637.13
2018-01-18T16:46:14.396Z,96626.25
2018-01-18T16:48:42.178Z,96624.48
2018-01-18T16:51:09.628Z,96642.59
2018-01-18T16:53:37.069Z,96613.95
2018-01-18T16:56:04.853Z,96658.55
2018-01-18T16:58:32.308Z,96658.11
2018-01-18T17:00:59.760Z,96641.38
2018-01-18T17:03:27.534Z,96648.56
2018-01-18T17:05:54.978Z,96630.78
2018-01-18T17:08:22.421Z,96687.50
2018-01-18T17:10:50.554Z,96679.30
2018-01-18T17:13:18.081Z,96640.71
2018-01-18T17:15:47.988Z,96665.39
2018-01-18T17:18:15.684Z,96655.09
2018-01-18T17:20:43.126Z,96680.36
2018-01-18T17:23:10.570Z,96666.16
2018-01-18T17:25:38.364Z,96672.83
2018-01-18T17:28:05.812Z,96635.51
2018-01-18T17:30:33.261Z,96661.79
2018-01-18T17:33:01.104Z,96661.30
2018-01-18T17:35:28.558Z,96664.67
2018-01-18T17:37:56.010Z,96655.83
2018-01-18T17:40:23.716Z,96679.03
2018-01-18T17:42:51.176Z,96696.41
2018-01-18T17:45:18.621Z,96712.25
2018-01-18T17:47:46.427Z,96712.48
2018-01-18T17:50:13.865Z,96716.25
2018-01-18T17:52:41.301Z,96732.28
2018-01-18T17:55:09.118Z,96752.75
2018-01-18T17:57:36.555Z,96772.09
2018-01-18T18:00:03.995Z,96776.66
2018-01-18T18:02:31.809Z,96787.66
2018-01-18T18:04:59.256Z,96790.58
2018-01-18T18:07:26.703Z,96801.31
2018-01-18T18:09:54.484Z,96803.06
2018-01-18T18:12:21.934Z,96798.96
2018-01-18T18:14:49.381Z,96793.80
2018-01-18T18:17:17.430Z,96797.36
2018-01-18T18:19:44.874Z,96798.27
2018-01-18T18:22:12.321Z,96800.73
2018-01-18T18:24:40.169Z,96818.06
2018-01-18T18:27:07.619Z,96838.47
2018-01-18T18:29:35.075Z,96829.02
2018-01-18T18:32:02.855Z,96821.23
2018-01-18T18:34:30.299Z,96814.95
2018-01-18T18:36:57.830Z,96810.45
2018-01-18T18:39:25.583Z,96798.50
2018-01-18T18:41:53.059Z,96812.34
2018-01-18T18:44:20.768Z,96805.27
2018-01-18T18:46:48.850Z,96810.94
2018-01-18T18:49:16.296Z,96806.34
2018-01-18T18:51:43.740Z,96795.72
2018-01-18T18:54:11.846Z,96786.91
2018-01-18T18:56:39.286Z,96802.64
2018-01-18T18:59:06.732Z,96823.31
2018-01-18T19:01:34.525Z,96848.05
2018-01-18T19:04:01.969Z,96888.97
2018-01-18T19:06:29.407Z,96860.64
2018-01-18T19:08:57.195Z,96876.59
2018-01-18T19:11:24.636Z,96856.38
2018-01-18T19:13:52.101Z,96850.28
2018-01-18T19:16:19.928Z,96840.70
2018-01-18T19:18:48.335Z,96891.53
2018-01-18T19:21:15.804Z,96847.39
2018-01-18T19:23:44.116Z,96836.59
2018-01-18T19:26:11.645Z,96828.77
2018-01-18T19:28:39.133Z,96851.09
2018-01-18T19:31:07.319Z,96851.05
2018-01-18T19:33:34.819Z,96843.55
2018-01-18T19:36:02.279Z,96856.91
2018-01-18T19:38:30.165Z,96868.91
2018-01-18T19:40:57.622Z,96828.68
2018-01-18T19:43:25.069Z,96841.33
2018-01-18T19:45:52.646Z,96835.05
2018-01-18T19:48:20.105Z,96852.82
2018-01-18T19:50:47.544Z,96820.91
2018-01-18T19:53:15.472Z,96856.32
2018-01-18T19:55:42.916Z,96853.99
2018-01-18T19:58:10.357Z,96847.83
2018-01-18T20:00:38.222Z,96860.16
2018-01-18T20:03:05.660Z,96877.50
2018-01-18T20:05:33.176Z,96864.44
2018-01-18T20:08:01.156Z,96875.77
2018-01-18T20:10:28.619Z,96873.77
2018-01-18T20:12:56.106Z,96887.05
2018-01-18T20:15:24.189Z,96886.03
2018-01-18T20:17:51.854Z,96869.37
2018-01-18T20:20:20.652Z,96858.93
2018-01-18T20:22:48.742Z,96887.23
2018-01-18T20:25:16.430Z,96889.42
2018-01-18T20:27:43.897Z,96884.72
2018-01-18T20:30:12.351Z,96880.70
2018-01-18T20:32:39.819Z,96893.27
2018-01-18T20:35:08.844Z,96893.27
2018-01-18T20:37:37.269Z,96903.70
2018-01-18T20:40:04.825Z,96915.47
2018-01-18T20:42:32.282Z,96918.41
2018-01-18T20:45:00.128Z,96925.47
2018-01-18T20:47:27.577Z,96918.28
2018-01-18T20:49:55.136Z,96927.95
2018-01-18T20:52:23.509Z,96931.49
2018-01-18T20:54:51.013Z,96937.61
2018-01-18T20:57:18.452Z,96941.16
2018-01-18T20:59:46.640Z,96933.39
2018-01-18T21:02:14.125Z,96967.44
2018-01-18T21:04:41.881Z,96964.12
2018-01-18T21:07:09.709Z,96986.69
2018-01-18T21:09:37.484Z,96999.53
2018-01-18T21:12:06.450Z,97034.68
2018-01-18T21:14:34.578Z,97018.91
2018-01-18T21:17:02.397Z,97042.44
2018-01-18T21:19:30.138Z,97042.41
2018-01-18T21:21:58.177Z,97072.83
2018-01-18T21:24:25.924Z,97061.86
2018-01-18T21:26:53.381Z,97057.84
2018-01-18T21:29:21.836Z,97091.75
2018-01-18T21:31:49.317Z,97069.14
2018-01-18T21:34:17.051Z,97059.22
2018-01-18T21:36:44.779Z,97086.88
2018-01-18T21:39:12.939Z,97075.20
2018-01-18T21:41:40.386Z,97097.52
2018-01-18T21:44:08.080Z,97073.47
2018-01-18T21:46:35.541Z,97081.45
2018-01-18T21:49:02.995Z,97093.97
2018-01-18T21:51:30.765Z,97086.31
2018-01-18T21:53:58.205Z,97104.09
2018-01-18T21:56:25.667Z,97087.45
2018-01-18T21:58:54.065Z,97087.20
2018-01-18T22:01:21.510Z,97079.20
2018-01-18T22:03:48.957Z,97105.28
2018-01-18T22:06:16.757Z,97114.08
2018-01-18T22:08:44.201Z,97109.33
2018-01-18T22:11:11.663Z,97119.27
2018-01-18T22:13:39.439Z,97128.62
2018-01-18T22:16:06.890Z,97144.68
2018-01-18T22:18:34.341Z,97138.29
2018-01-18T22:21:02.135Z,97133.30
2018-01-18T22:23:29.960Z,97130.78
2018-01-18T22:25:57.422Z,97113.19
2018-01-18T22:28:25.376Z,97121.45
2018-01-18T22:30:52.843Z,97133.69
2018-01-18T22:33:20.298Z,97117.20
2018-01-18T22:35:49.049Z,97125.27
2018-01-18T22:38:16.505Z,97099.99
2018-01-18T22:40:43.946Z,97104.23
2018-01-18T22:43:11.733Z,97091.89
2018-01-18T22:45:39.181Z,97117.40
2018-01-18T22:48:06.632Z,97131.02
2018-01-18T22:50:34.312Z,97133.07
2018-01-18T22:53:01.761Z,97139.67
2018-01-18T22:55:29.209Z,97145.02
2018-01-18T22:57:57.107Z,97133.34
2018-01-18T23:00:24.557Z,97129.88
2018-01-18T23:02:52.011Z,97134.12
2018-01-18T23:05:19.961Z,97128.41
2018-01-18T23:07:48.955Z,97147.21
2018-01-18T23:10:16.474Z,97147.27
2018-01-18T23:12:44.333Z,97169.30
2018-01-18T23:15:11.781Z,97151.36
2018-01-18T23:17:39.220Z,97146.89
2018-01-18T23:20:07.018Z,97127.55
2018-01-18T23:22:34.477Z,97128.80
2018-01-18T23:25:02.302Z,97145.70
2018-01-18T23:27:30.004Z,97163.69
2018-01-18T23:29:57.456Z,97148.66
2018-01-18T23:32:24.907Z,97146.34
2018-01-18T23:34:52.692Z,97136.19
2018-01-18T23:37:20.144Z,97160.38
2018-01-18T23:39:47.597Z,97161.23
2018-01-18T23:42:15.218Z,97159.57
2018-01-18T23:44:42.666Z,97145.88
2018-01-18T23:47:10.113Z,97140.95
2018-01-18T23:49:38.061Z,97130.83
2018-01-18T23:52:05.505Z,97107.73
2018-01-18T23:54:32.949Z,97121.39
2018-01-18T23:57:00.751Z,97151.10
2018-01-18T23:59:28.196Z,97166.89
